Time;durP1;ratioP1;P1;durP2;ratioP2;P2;SDS_P1;SDS_P2;PMS_P1;PMS_P2;Temp;Humidity;BMP_temperature;BMP_pressure;BME280_temperature;BME280_humidity;BME280_pressure;Samples;Min_cycle;Max_cycle;Signal;HPM_P1;HPM_P2
2022/06/22 00:02:08;;;;;;;;;;;;;;;25.28;81.52;98645.09;5034291;28;20254;-39
2022/06/22 00:04:43;;;;;;;;;;;;;;;25.75;81.71;98649.25;5034202;28;20753;-39
2022/06/22 00:07:12;;;;;;;;;;;;;;;25.67;82.55;98647.38;5036477;28;19925;-39
2022/06/22 00:09:38;;;;;;;;;;;;;;;25.75;81.70;98650.09;5034792;28;19925;-39
2022/06/22 00:12:04;;;;;;;;;;;;;;;25.60;81.51;98646.34;5033581;28;19956;-39
2022/06/22 00:14:46;;;;;;;;;;;;;;;25.28;83.78;98650.38;5034745;28;19959;-39
2022/06/22 00:17:15;;;;;;;;;;;;;;;25.42;84.82;98646.38;5034368;28;19978;-39
2022/06/22 00:19:41;;;;;;;;;;;;;;;25.62;83.84;98647.84;5022456;28;20919;-39
2022/06/22 00:22:15;;;;;;;;;;;;;;;25.37;83.51;98644.19;5017178;28;19921;-39
2022/06/22 00:24:41;;;;;;;;;;;;;;;25.12;85.41;98642.28;5015726;28;19920;-39
2022/06/22 00:27:11;;;;;;;;;;;;;;;25.33;86.81;98634.09;5035091;28;19960;-39
2022/06/22 00:29:36;;;;;;;;;;;;;;;24.95;86.66;98628.97;5033585;28;19921;-39
2022/06/22 00:32:12;;;;;;;;;;;;;;;24.98;88.21;98620.75;5034040;28;19974;-39
2022/06/22 00:34:37;;;;;;;;;;;;;;;24.86;88.00;98619.34;5018226;28;19924;-39
2022/06/22 00:37:03;;;;;;;;;;;;;;;24.59;89.19;98612.31;5037632;28;19925;-39
2022/06/22 00:39:29;;;;;;;;;;;;;;;24.51;90.08;98617.47;5038540;28;19921;-40
2022/06/22 00:42:15;;;;;;;;;;;;;;;24.45;91.63;98616.22;5039167;28;20392;-39
2022/06/22 00:44:43;;;;;;;;;;;;;;;24.46;91.74;98612.63;5035959;28;19921;-39
2022/06/22 00:47:14;;;;;;;;;;;;;;;24.70;90.90;98606.84;5034935;28;19959;-39
2022/06/22 00:49:41;;;;;;;;;;;;;;;24.44;88.45;98604.03;5034549;28;19927;-39
2022/06/22 00:52:08;;;;;;;;;;;;;;;24.56;89.98;98610.81;5035401;28;19917;-40
2022/06/22 00:54:33;;;;;;;;;;;;;;;24.54;88.26;98604.84;5024248;28;19977;-39
2022/06/22 00:57:07;;;;;;;;;;;;;;;24.38;88.50;98599.34;5016964;28;19924;-39
2022/06/22 00:59:32;;;;;;;;;;;;;;;24.43;87.22;98589.22;5035157;28;19967;-39
2022/06/22 01:02:16;;;;;;;;;;;;;;;24.36;87.70;98588.97;5033657;28;20089;-39
2022/06/22 01:04:41;;;;;;;;;;;;;;;24.16;88.21;98580.34;5034936;28;19964;-39
2022/06/22 01:07:19;;;;;;;;;;;;;;;24.26;88.26;98584.75;5035120;28;20019;-39
2022/06/22 01:09:46;;;;;;;;;;;;;;;24.07;86.49;98588.31;5034340;28;19927;-39
2022/06/22 01:12:31;;;;;;;;;;;;;;;23.57;87.11;98602.53;5033475;28;19966;-39
2022/06/22 01:15:06;;;;;;;;;;;;;;;23.05;90.16;98610.72;5034524;28;19920;-39
2022/06/22 01:17:35;;;;;;;;;;;;;;;22.95;90.81;98610.69;5034527;28;19959;-39
2022/06/22 01:20:09;;;;;;;;;;;;;;;23.35;89.26;98601.84;5034261;28;19960;-39
2022/06/22 01:22:53;;;;;;;;;;;;;;;22.59;91.01;98601.66;5033749;28;19921;-39
2022/06/22 01:25:23;;;;;;;;;;;;;;;21.60;95.58;98611.00;5034498;28;19916;-39
2022/06/22 01:27:49;;;;;;;;;;;;;;;21.35;99.95;98606.97;5031130;28;19970;-39
2022/06/22 01:30:28;;;;;;;;;;;;;;;21.95;97.31;98594.94;5034583;28;19917;-39
2022/06/22 01:32:53;;;;;;;;;;;;;;;22.30;93.27;98599.78;5032819;28;20348;-39
2022/06/22 01:35:32;;;;;;;;;;;;;;;23.03;90.47;98586.38;5032911;28;19925;-39
2022/06/22 01:37:57;;;;;;;;;;;;;;;23.23;88.30;98570.63;5034873;28;19955;-39
2022/06/22 01:40:23;;;;;;;;;;;;;;;23.25;85.59;98563.44;5033637;28;19921;-39
2022/06/22 01:42:52;;;;;;;;;;;;;;;23.29;85.55;98562.19;5034447;28;20712;-39
2022/06/22 01:45:19;;;;;;;;;;;;;;;23.00;86.67;98562.22;5034538;28;19963;-39
2022/06/22 01:47:49;;;;;;;;;;;;;;;23.07;89.02;98550.19;5035507;28;19927;-39
2022/06/22 01:50:17;;;;;;;;;;;;;;;23.30;87.55;98550.72;5037706;28;19927;-39
2022/06/22 01:52:43;;;;;;;;;;;;;;;23.33;87.79;98558.31;5038315;28;19927;-39
2022/06/22 01:55:21;;;;;;;;;;;;;;;23.26;86.95;98565.09;5037815;28;19920;-39
2022/06/22 01:57:48;;;;;;;;;;;;;;;23.31;87.48;98562.88;5037964;28;19983;-39
2022/06/22 02:00:17;;;;;;;;;;;;;;;23.32;87.45;98561.91;5035871;28;20079;-39
2022/06/22 02:02:50;;;;;;;;;;;;;;;23.00;88.62;98572.72;5038130;28;19975;-39
2022/06/22 02:05:15;;;;;;;;;;;;;;;22.83;89.29;98569.78;5036462;28;20020;-39
2022/06/22 02:07:46;;;;;;;;;;;;;;;22.51;91.54;98567.38;5037410;28;20220;-39
2022/06/22 02:10:15;;;;;;;;;;;;;;;22.46;92.29;98562.53;5035908;28;19920;-39
2022/06/22 02:12:42;;;;;;;;;;;;;;;22.45;92.24;98566.16;5037342;28;19944;-39
2022/06/22 02:15:13;;;;;;;;;;;;;;;22.30;92.70;98567.47;5037395;28;19935;-39
2022/06/22 02:17:38;;;;;;;;;;;;;;;22.52;92.19;98572.50;5035570;28;19964;-39
2022/06/22 02:20:16;;;;;;;;;;;;;;;22.75;89.99;98577.50;5035658;28;20469;-39
2022/06/22 02:22:41;;;;;;;;;;;;;;;22.70;90.24;98574.47;5037625;28;19945;-39
2022/06/22 02:25:06;;;;;;;;;;;;;;;22.60;90.11;98563.13;5035848;28;21620;-39
2022/06/22 02:27:31;;;;;;;;;;;;;;;22.20;90.02;98566.59;5035706;28;19920;-39
2022/06/22 02:29:57;;;;;;;;;;;;;;;21.15;94.20;98567.53;5035745;28;19932;-39
2022/06/22 02:32:30;;;;;;;;;;;;;;;21.06;95.92;98573.53;5037419;28;19921;-39
2022/06/22 02:34:55;;;;;;;;;;;;;;;21.86;94.23;98569.50;5035939;28;19936;-39
2022/06/22 02:37:22;;;;;;;;;;;;;;;22.37;91.01;98573.84;5037179;28;20309;-39
2022/06/22 02:39:48;;;;;;;;;;;;;;;21.94;91.30;98577.56;5035540;28;19921;-39
2022/06/22 02:44:58;;;;;;;;;;;;;;;22.15;91.56;98559.13;5034913;28;20129;-39
2022/06/22 02:47:23;;;;;;;;;;;;;;;22.38;89.82;98554.53;5038120;28;19924;-39
2022/06/22 02:50:08;;;;;;;;;;;;;;;22.20;89.78;98553.50;5037135;28;20015;-39
2022/06/22 02:52:35;;;;;;;;;;;;;;;22.37;89.34;98552.84;5005920;28;20114;-39
2022/06/22 02:55:00;;;;;;;;;;;;;;;22.26;88.99;98545.94;5035799;28;20045;-39
2022/06/22 02:57:25;;;;;;;;;;;;;;;22.20;89.66;98556.94;5036358;28;20350;-39
2022/06/22 02:59:51;;;;;;;;;;;;;;;21.55;91.21;98577.34;5035258;28;19920;-40
2022/06/22 03:02:17;;;;;;;;;;;;;;;21.54;92.67;98577.50;5035532;28;19917;-39
2022/06/22 03:04:43;;;;;;;;;;;;;;;21.49;93.02;98583.13;5036342;28;19924;-39
2022/06/22 03:07:08;;;;;;;;;;;;;;;21.83;91.72;98583.72;5035193;28;19920;-39
2022/06/22 03:09:34;;;;;;;;;;;;;;;21.68;91.63;98583.22;5034710;28;20784;-39
2022/06/22 03:11:59;;;;;;;;;;;;;;;21.85;91.55;98573.06;5036529;28;20377;-38
2022/06/22 03:14:24;;;;;;;;;;;;;;;21.79;90.64;98573.63;5036271;28;19921;-39
2022/06/22 03:17:00;;;;;;;;;;;;;;;21.65;91.16;98575.63;5035989;28;19932;-39
2022/06/22 03:19:27;;;;;;;;;;;;;;;21.67;91.60;98568.47;5038370;28;19948;-39
2022/06/22 03:21:52;;;;;;;;;;;;;;;21.80;91.37;98554.31;5037288;28;20287;-38
2022/06/22 03:24:30;;;;;;;;;;;;;;;21.68;91.23;98545.69;5036378;28;19966;-39
2022/06/22 03:26:56;;;;;;;;;;;;;;;21.76;91.17;98545.03;5036415;28;20333;-39
2022/06/22 03:29:27;;;;;;;;;;;;;;;21.77;91.18;98544.91;5033945;28;19967;-39
2022/06/22 03:31:57;;;;;;;;;;;;;;;21.83;91.41;98541.78;5034706;28;19927;-38
2022/06/22 03:34:24;;;;;;;;;;;;;;;21.78;91.25;98536.09;5034847;28;19920;-39
2022/06/22 03:36:52;;;;;;;;;;;;;;;21.70;90.90;98535.91;5034111;28;19975;-38
2022/06/22 03:39:17;;;;;;;;;;;;;;;21.31;92.27;98552.22;5033760;28;19921;-39
2022/06/22 03:41:46;;;;;;;;;;;;;;;20.76;94.49;98562.00;5035315;28;19916;-39
2022/06/22 03:44:15;;;;;;;;;;;;;;;20.79;96.29;98566.16;5034768;28;20743;-38
2022/06/22 03:46:46;;;;;;;;;;;;;;;20.53;96.96;98569.06;5034656;28;19920;-38
2022/06/22 03:49:29;;;;;;;;;;;;;;;20.41;98.46;98581.34;5034641;28;19928;-38
2022/06/22 03:52:08;;;;;;;;;;;;;;;20.88;97.88;98583.72;5036273;28;19955;-38
2022/06/22 03:54:33;;;;;;;;;;;;;;;21.07;97.41;98588.28;5036132;28;20039;-38
2022/06/22 03:56:59;;;;;;;;;;;;;;;21.01;98.33;98575.72;5034051;28;19966;-38
2022/06/22 03:59:25;;;;;;;;;;;;;;;21.46;98.49;98567.63;5031303;28;20269;-38
2022/06/22 04:01:51;;;;;;;;;;;;;;;21.59;96.19;98563.03;5033098;28;20429;-38
2022/06/22 04:04:16;;;;;;;;;;;;;;;21.62;96.15;98557.53;5035231;28;19920;-38
2022/06/22 04:06:45;;;;;;;;;;;;;;;21.06;98.24;98558.66;5035604;28;19917;-38
2022/06/22 04:09:12;;;;;;;;;;;;;;;20.22;100.00;98570.66;5034147;28;19946;-38
2022/06/22 04:11:38;;;;;;;;;;;;;;;21.15;100.00;98567.53;5033812;28;20409;-38
2022/06/22 04:14:10;;;;;;;;;;;;;;;20.38;100.00;98571.09;5032529;28;20281;-38
2022/06/22 04:16:39;;;;;;;;;;;;;;;20.18;100.00;98569.22;5032022;28;19921;-38
2022/06/22 04:19:25;;;;;;;;;;;;;;;20.37;100.00;98572.06;5034077;28;20238;-38
2022/06/22 04:21:58;;;;;;;;;;;;;;;20.14;100.00;98578.25;5037405;28;19920;-38
2022/06/22 04:24:25;;;;;;;;;;;;;;;21.40;100.00;98560.28;5035265;28;20006;-39
2022/06/22 04:27:00;;;;;;;;;;;;;;;22.37;98.66;98552.84;5033495;28;20264;-38
2022/06/22 04:29:32;;;;;;;;;;;;;;;22.67;96.70;98561.59;5032237;28;19955;-38
2022/06/22 04:32:00;;;;;;;;;;;;;;;23.00;96.19;98554.34;5033498;28;19932;-38
2022/06/22 04:34:45;;;;;;;;;;;;;;;23.28;93.97;98553.47;5033319;28;19925;-38
2022/06/22 04:37:16;;;;;;;;;;;;;;;22.65;92.53;98545.16;5035691;28;19928;-38
2022/06/22 04:39:42;;;;;;;;;;;;;;;21.34;98.23;98558.97;5034840;28;19924;-38
2022/06/22 04:42:07;;;;;;;;;;;;;;;20.29;100.00;98571.81;5036541;28;20004;-38
2022/06/22 04:44:39;;;;;;;;;;;;;;;20.56;100.00;98575.81;5037542;28;19923;-38
2022/06/22 04:47:18;;;;;;;;;;;;;;;21.51;100.00;98555.00;5035926;28;19921;-38
2022/06/22 04:49:46;;;;;;;;;;;;;;;22.25;98.14;98554.78;5036740;28;19944;-39
2022/06/22 04:52:21;;;;;;;;;;;;;;;22.00;100.00;98561.28;5035372;28;20014;-38
2022/06/22 04:54:47;;;;;;;;;;;;;;;21.92;100.00;98558.50;5033340;28;19927;-38
2022/06/22 04:57:26;;;;;;;;;;;;;;;22.22;96.39;98548.97;5031580;28;19917;-38
2022/06/22 04:59:52;;;;;;;;;;;;;;;23.96;91.91;98544.59;5031529;28;20020;-39
2022/06/22 05:02:18;;;;;;;;;;;;;;;24.33;88.58;98544.50;5034646;28;20016;-38
2022/06/22 05:04:44;;;;;;;;;;;;;;;24.58;87.16;98548.25;5033519;28;19938;-38
2022/06/22 05:07:30;;;;;;;;;;;;;;;24.63;84.88;98551.31;5035656;28;20402;-38
2022/06/22 05:09:58;;;;;;;;;;;;;;;24.28;85.84;98552.03;5032440;28;20622;-38
2022/06/22 05:12:24;;;;;;;;;;;;;;;24.15;89.00;98557.66;5032398;28;19935;-38
2022/06/22 05:14:49;;;;;;;;;;;;;;;24.13;88.59;98559.59;5033830;28;19917;-38
2022/06/22 05:17:19;;;;;;;;;;;;;;;23.46;89.21;98566.72;5032577;28;19916;-38
2022/06/22 05:19:52;;;;;;;;;;;;;;;24.78;88.27;98569.22;5032507;28;20388;-38
2022/06/22 05:22:18;;;;;;;;;;;;;;;24.78;83.11;98575.28;5035243;28;19920;-38
2022/06/22 05:24:45;;;;;;;;;;;;;;;25.14;84.16;98590.28;5036302;28;19965;-38
2022/06/22 05:27:11;;;;;;;;;;;;;;;24.84;86.15;98594.94;5038340;28;19923;-38
2022/06/22 05:29:36;;;;;;;;;;;;;;;23.70;87.63;98597.81;5037668;28;19913;-38
2022/06/22 05:32:03;;;;;;;;;;;;;;;24.82;86.90;98596.91;5035415;28;20167;-38
2022/06/22 05:34:37;;;;;;;;;;;;;;;25.05;82.72;98605.19;5037083;28;19950;-38
2022/06/22 05:37:07;;;;;;;;;;;;;;;25.20;81.35;98603.72;5038065;28;19921;-38
2022/06/22 05:39:33;;;;;;;;;;;;;;;24.69;84.19;98601.69;5037669;28;19916;-38
2022/06/22 05:41:58;;;;;;;;;;;;;;;25.51;84.65;98603.28;5037443;28;19942;-38
2022/06/22 05:44:24;;;;;;;;;;;;;;;25.84;81.33;98603.47;5037371;28;20378;-39
2022/06/22 05:46:50;;;;;;;;;;;;;;;26.05;80.11;98603.13;5021335;28;19943;-38
2022/06/22 05:49:16;;;;;;;;;;;;;;;25.35;81.47;98614.53;5039118;28;20008;-38
2022/06/22 05:51:54;;;;;;;;;;;;;;;25.43;81.17;98605.84;5037291;28;20721;-38
2022/06/22 05:54:20;;;;;;;;;;;;;;;25.62;81.65;98605.66;5037952;28;19920;-38
2022/06/22 05:56:52;;;;;;;;;;;;;;;25.58;82.39;98606.94;5034623;28;19921;-38
2022/06/22 05:59:18;;;;;;;;;;;;;;;25.59;81.28;98602.47;5036213;28;20407;-38
2022/06/22 06:01:58;;;;;;;;;;;;;;;26.08;81.92;98600.16;5039157;28;19921;-38
2022/06/22 06:04:26;;;;;;;;;;;;;;;25.84;81.87;98606.97;5037670;28;20444;-38
2022/06/22 06:06:52;;;;;;;;;;;;;;;26.30;80.50;98614.63;5036725;28;19920;-38
2022/06/22 06:09:19;;;;;;;;;;;;;;;26.03;81.89;98613.84;5038370;28;20034;-38
2022/06/22 06:11:49;;;;;;;;;;;;;;;26.41;80.91;98613.50;5036741;28;19920;-38
2022/06/22 06:14:25;;;;;;;;;;;;;;;26.86;75.85;98614.97;5036783;28;19920;-39
2022/06/22 06:16:51;;;;;;;;;;;;;;;26.82;75.24;98616.28;5038609;28;20335;-38
2022/06/22 06:19:18;;;;;;;;;;;;;;;26.33;78.15;98624.88;5036527;28;19920;-39
2022/06/22 06:21:43;;;;;;;;;;;;;;;26.99;73.04;98623.25;5037833;28;19936;-39
2022/06/22 06:24:16;;;;;;;;;;;;;;;26.94;74.59;98632.63;5037800;28;19916;-38
2022/06/22 06:29:30;;;;;;;;;;;;;;;27.10;76.11;98638.78;5037978;28;19947;-38
2022/06/22 06:32:14;;;;;;;;;;;;;;;26.67;77.17;98645.97;5039265;28;19920;-38
2022/06/22 06:34:44;;;;;;;;;;;;;;;26.43;75.56;98635.28;5037044;28;20946;-38
2022/06/22 06:37:17;;;;;;;;;;;;;;;26.17;83.96;98641.44;5039116;28;19979;-38
2022/06/22 06:39:44;;;;;;;;;;;;;;;26.21;82.19;98632.25;5037993;28;19921;-38
2022/06/22 06:42:20;;;;;;;;;;;;;;;25.59;83.85;98642.91;5036976;28;19921;-38
2022/06/22 06:44:45;;;;;;;;;;;;;;;25.85;82.75;98636.78;5036504;28;19925;-38
2022/06/22 06:47:15;;;;;;;;;;;;;;;27.30;76.37;98630.56;5038885;28;19917;-39
2022/06/22 06:49:50;;;;;;;;;;;;;;;27.12;74.49;98625.44;5037585;28;19921;-39
2022/06/22 06:52:29;;;;;;;;;;;;;;;26.68;76.73;98639.69;5011096;28;19956;-39
2022/06/22 06:54:56;;;;;;;;;;;;;;;26.15;75.92;98640.78;5038195;28;20027;-39
2022/06/22 06:57:22;;;;;;;;;;;;;;;25.74;80.32;98637.88;5037265;28;19917;-39
2022/06/22 06:59:55;;;;;;;;;;;;;;;25.97;77.47;98616.28;5037489;28;19921;-39
2022/06/22 07:02:20;;;;;;;;;;;;;;;25.67;81.47;98628.94;5037832;28;19920;-39
2022/06/22 07:04:45;;;;;;;;;;;;;;;26.58;75.46;98625.00;5035059;28;19921;-39
2022/06/22 07:07:23;;;;;;;;;;;;;;;25.21;83.97;98628.25;5038468;28;19925;-39
2022/06/22 07:09:48;;;;;;;;;;;;;;;26.19;82.08;98622.81;5037932;28;19920;-38
2022/06/22 07:12:35;;;;;;;;;;;;;;;26.59;81.50;98624.81;5035188;28;19924;-39
2022/06/22 07:15:02;;;;;;;;;;;;;;;27.01;74.03;98616.00;5037253;28;19959;-38
2022/06/22 07:17:27;;;;;;;;;;;;;;;26.77;77.52;98615.94;5037898;28;19939;-39
2022/06/22 07:19:52;;;;;;;;;;;;;;;26.21;73.33;98616.41;5037095;28;19922;-39
2022/06/22 07:22:21;;;;;;;;;;;;;;;26.98;75.73;98607.56;5039611;28;19917;-39
2022/06/22 07:24:53;;;;;;;;;;;;;;;27.32;73.89;98615.34;5039085;28;20035;-38
2022/06/22 07:27:53;;;;;;;;;;;;;;;27.46;71.08;98622.66;5038943;28;19921;-39
2022/06/22 07:30:19;;;;;;;;;;;;;;;27.63;70.04;98607.56;4964432;28;19942;-39
2022/06/22 07:32:52;;;;;;;;;;;;;;;26.79;73.82;98603.41;5024402;28;19991;-39
2022/06/22 07:35:37;;;;;;;;;;;;;;;27.69;70.01;98603.44;5038372;28;19928;-39
2022/06/22 07:38:07;;;;;;;;;;;;;;;27.29;72.34;98611.22;5038356;28;20445;-39
2022/06/22 07:40:33;;;;;;;;;;;;;;;28.33;69.04;98604.25;5037644;28;19921;-39
2022/06/22 07:42:58;;;;;;;;;;;;;;;27.11;70.44;98614.00;5039388;28;20739;-39
2022/06/22 07:45:24;;;;;;;;;;;;;;;27.49;69.34;98601.16;5036206;28;20336;-39
2022/06/22 07:47:51;;;;;;;;;;;;;;;27.52;68.04;98603.44;5038182;28;20372;-39
2022/06/22 07:50:23;;;;;;;;;;;;;;;28.49;66.37;98597.25;5036746;28;19921;-39
2022/06/22 07:52:53;;;;;;;;;;;;;;;26.65;71.78;98591.66;5038224;28;19924;-39
2022/06/22 07:55:31;;;;;;;;;;;;;;;27.81;68.31;98583.56;5037606;28;20019;-39
2022/06/22 07:57:56;;;;;;;;;;;;;;;27.56;73.21;98579.31;5036753;28;19923;-39
2022/06/22 08:00:22;;;;;;;;;;;;;;;27.71;75.44;98589.06;5036963;28;19920;-39
2022/06/22 08:02:56;;;;;;;;;;;;;;;27.03;82.48;98590.22;5035164;28;19927;-39
2022/06/22 08:05:22;;;;;;;;;;;;;;;29.72;67.32;98583.06;5036643;28;19960;-39
2022/06/22 08:07:57;;;;;;;;;;;;;;;28.32;71.91;98586.69;5037269;28;20051;-39
2022/06/22 08:10:24;;;;;;;;;;;;;;;28.53;66.64;98587.94;5018204;28;19916;-39
2022/06/22 08:13:02;;;;;;;;;;;;;;;28.58;64.80;98588.28;5036269;28;20289;-39
2022/06/22 08:15:28;;;;;;;;;;;;;;;28.43;65.10;98579.38;5037251;28;20019;-39
2022/06/22 08:17:54;;;;;;;;;;;;;;;28.69;65.76;98582.56;5019622;28;19917;-39
2022/06/22 08:20:20;;;;;;;;;;;;;;;28.62;68.60;98576.31;5036641;28;19955;-39
2022/06/22 08:22:45;;;;;;;;;;;;;;;29.07;64.00;98585.25;5036687;28;19979;-39
2022/06/22 08:25:11;;;;;;;;;;;;;;;28.58;63.60;98582.97;5035919;28;20437;-39
2022/06/22 08:27:37;;;;;;;;;;;;;;;28.29;60.15;98587.06;5035702;28;19916;-39
2022/06/22 08:30:02;;;;;;;;;;;;;;;29.23;58.11;98588.81;5035734;28;19922;-39
2022/06/22 08:32:30;;;;;;;;;;;;;;;29.23;62.75;98597.59;5033540;28;19927;-39
2022/06/22 08:34:56;;;;;;;;;;;;;;;27.31;68.05;98603.97;5023870;28;20344;-39
2022/06/22 08:37:25;;;;;;;;;;;;;;;28.75;64.36;98594.28;5034461;28;19924;-39
2022/06/22 08:39:52;;;;;;;;;;;;;;;29.04;58.98;98587.47;5021929;28;20286;-39
2022/06/22 08:42:56;;;;;;;;;;;;;;;29.03;59.79;98583.97;5033038;28;20922;-39
2022/06/22 08:45:37;;;;;;;;;;;;;;;29.72;58.15;98589.22;4972483;28;20417;-39
2022/06/22 08:48:21;;;;;;;;;;;;;;;30.69;52.63;98590.84;4946166;28;20100;-39
2022/06/22 08:50:49;;;;;;;;;;;;;;;29.61;52.33;98598.41;5015435;28;20573;-39
2022/06/22 08:53:35;;;;;;;;;;;;;;;28.90;53.88;98591.72;5034926;28;19954;-39
2022/06/22 08:56:00;;;;;;;;;;;;;;;27.84;58.42;98598.31;5033868;28;19955;-39
2022/06/22 08:58:44;;;;;;;;;;;;;;;30.03;50.29;98590.84;5037165;28;19921;-39
2022/06/22 09:01:35;;;;;;;;;;;;;;;31.19;47.97;98594.44;5038781;28;20519;-39
2022/06/22 09:04:10;;;;;;;;;;;;;;;30.94;46.66;98594.00;5036107;28;19932;-39
2022/06/22 09:06:47;;;;;;;;;;;;;;;31.10;45.09;98592.09;5038537;28;19939;-39
2022/06/22 09:09:26;;;;;;;;;;;;;;;30.84;44.51;98593.47;5038573;28;19927;-39
2022/06/22 09:11:57;;;;;;;;;;;;;;;31.12;44.03;98590.91;5040254;28;19921;-39
2022/06/22 09:14:28;;;;;;;;;;;;;;;32.56;42.15;98592.22;5039553;28;20689;-39
2022/06/22 09:16:56;;;;;;;;;;;;;;;31.40;44.19;98598.06;5040244;28;19925;-39
2022/06/22 09:19:30;;;;;;;;;;;;;;;30.06;46.06;98601.13;5039930;28;19932;-39
2022/06/22 09:22:04;;;;;;;;;;;;;;;32.59;41.73;98597.16;5040396;28;20054;-39
2022/06/22 09:24:30;;;;;;;;;;;;;;;31.46;43.81;98608.00;5040146;28;20886;-39
2022/06/22 09:26:58;;;;;;;;;;;;;;;32.49;43.45;98592.19;5040312;28;19962;-39
2022/06/22 09:29:24;;;;;;;;;;;;;;;30.28;43.88;98604.69;5040390;28;19924;-39
2022/06/22 09:31:49;;;;;;;;;;;;;;;31.17;41.22;98601.78;5040087;28;19916;-39
2022/06/22 09:34:18;;;;;;;;;;;;;;;31.33;40.73;98602.53;5039592;28;19961;-39
2022/06/22 09:37:02;;;;;;;;;;;;;;;31.85;42.39;98606.63;5037739;28;19947;-39
2022/06/22 09:39:40;;;;;;;;;;;;;;;32.77;43.72;98600.06;5039711;28;19924;-39
2022/06/22 09:42:09;;;;;;;;;;;;;;;32.99;40.93;98608.72;5039009;28;19979;-39
2022/06/22 09:44:44;;;;;;;;;;;;;;;32.80;38.75;98609.50;5038549;28;19920;-39
2022/06/22 09:47:28;;;;;;;;;;;;;;;32.70;39.41;98604.56;5038357;28;19921;-39
2022/06/22 09:50:09;;;;;;;;;;;;;;;31.37;41.79;98611.78;5037621;28;20027;-39
2022/06/22 09:52:53;;;;;;;;;;;;;;;31.13;41.54;98619.13;5039116;28;19917;-39
2022/06/22 09:58:10;;;;;;;;;;;;;;;30.17;42.42;98629.03;5037965;28;20011;-39
2022/06/22 10:00:37;;;;;;;;;;;;;;;31.04;40.45;98615.81;5036396;28;19921;-39
2022/06/22 10:03:17;;;;;;;;;;;;;;;31.47;40.34;98625.59;5036033;28;19967;-39
2022/06/22 10:06:15;;;;;;;;;;;;;;;31.49;40.15;98618.25;5038455;28;19920;-39
2022/06/22 10:08:45;;;;;;;;;;;;;;;30.36;43.75;98627.69;4991299;28;19963;-39
2022/06/22 10:11:10;;;;;;;;;;;;;;;30.39;41.79;98625.47;5036801;28;19948;-39
2022/06/22 10:13:54;;;;;;;;;;;;;;;32.90;38.16;98617.94;5038563;28;20028;-39
2022/06/22 10:16:19;;;;;;;;;;;;;;;33.89;38.82;98613.66;5037742;28;19978;-39
2022/06/22 10:19:04;;;;;;;;;;;;;;;32.91;37.35;98612.44;5038776;28;20011;-39
2022/06/22 10:21:29;;;;;;;;;;;;;;;33.06;37.58;98603.44;5037459;28;19916;-39
2022/06/22 10:23:55;;;;;;;;;;;;;;;34.33;34.91;98609.47;5037253;28;19923;-39
2022/06/22 10:26:23;;;;;;;;;;;;;;;33.67;35.15;98608.59;5038246;28;20027;-39
2022/06/22 10:28:51;;;;;;;;;;;;;;;34.34;35.81;98605.75;5038175;28;19924;-39
2022/06/22 10:31:25;;;;;;;;;;;;;;;35.28;34.23;98596.13;5037244;28;19967;-39
2022/06/22 10:34:11;;;;;;;;;;;;;;;33.70;35.23;98605.50;5037092;28;19921;-39
2022/06/22 10:36:45;;;;;;;;;;;;;;;30.73;40.88;98604.59;5039334;28;20694;-39
2022/06/22 10:39:29;;;;;;;;;;;;;;;33.59;37.46;98603.44;5038779;28;19920;-39
2022/06/22 10:45:13;;;;;;;;;;;;;;;33.03;35.19;98590.47;5038875;28;19981;-46
2022/06/22 10:47:50;;;;;;;;;;;;;;;33.87;38.01;98594.34;5039364;28;20050;-40
2022/06/22 10:50:31;;;;;;;;;;;;;;;34.10;33.96;98584.06;5037674;28;19916;-39
2022/06/22 10:53:03;;;;;;;;;;;;;;;32.34;36.38;98592.31;5038599;28;19925;-39
2022/06/22 10:55:34;;;;;;;;;;;;;;;32.25;38.20;98580.19;5038277;28;19935;-39
2022/06/22 10:58:19;;;;;;;;;;;;;;;33.79;37.11;98581.25;5036895;28;20031;-39
2022/06/22 11:01:05;;;;;;;;;;;;;;;33.38;36.98;98569.75;5034333;28;20740;-39
2022/06/22 11:03:48;;;;;;;;;;;;;;;33.62;35.89;98572.84;5035651;28;19917;-39
2022/06/22 11:06:32;;;;;;;;;;;;;;;33.84;36.19;98573.41;5038246;28;19920;-39
2022/06/22 11:09:16;;;;;;;;;;;;;;;33.85;37.28;98561.69;5036411;28;20370;-40
2022/06/22 11:11:53;;;;;;;;;;;;;;;34.29;35.83;98560.13;5036586;28;19956;-39
2022/06/22 11:14:34;;;;;;;;;;;;;;;34.86;34.17;98555.69;5036056;28;20374;-39
2022/06/22 11:17:03;;;;;;;;;;;;;;;35.97;35.24;98572.00;5036978;28;20721;-39
2022/06/22 11:19:28;;;;;;;;;;;;;;;33.63;36.81;98567.28;5035786;28;19932;-39
2022/06/22 11:22:00;;;;;;;;;;;;;;;34.07;34.97;98568.38;5036656;28;19920;-39
2022/06/22 11:24:43;;;;;;;;;;;;;;;34.85;36.01;98556.75;5037809;28;20039;-39
2022/06/22 11:33:13;;;;;;;;;;;;;;;34.93;36.34;98556.44;5037489;28;19928;-39
2022/06/22 11:35:57;;;;;;;;;;;;;;;34.52;34.76;98560.41;5037939;28;20263;-39
2022/06/22 11:38:31;;;;;;;;;;;;;;;34.43;34.29;98561.69;5037933;28;20843;-40
2022/06/22 11:41:05;;;;;;;;;;;;;;;34.23;33.11;98582.34;5035238;28;19921;-40
2022/06/22 11:43:49;;;;;;;;;;;;;;;34.63;33.45;98571.50;5037890;28;19962;-40
2022/06/22 11:46:17;;;;;;;;;;;;;;;35.33;35.06;98582.94;5035994;28;19963;-40
2022/06/22 11:48:43;;;;;;;;;;;;;;;36.83;33.27;98575.44;5036856;28;19921;-40
2022/06/22 11:51:27;;;;;;;;;;;;;;;35.95;33.34;98579.47;5036286;28;20023;-39
2022/06/22 11:53:55;;;;;;;;;;;;;;;35.36;33.83;98577.13;5035273;28;19927;-39
2022/06/22 11:56:37;;;;;;;;;;;;;;;34.45;34.98;98575.66;5036623;28;19921;-39
2022/06/22 11:59:08;;;;;;;;;;;;;;;36.13;33.92;98576.81;5036792;28;19964;-39
2022/06/22 12:02:06;;;;;;;;;;;;;;;35.05;32.19;98569.13;5034751;28;19968;-38
2022/06/22 12:04:46;;;;;;;;;;;;;;;36.27;33.18;98573.97;4992710;28;19927;-39
2022/06/22 12:07:17;;;;;;;;;;;;;;;33.90;33.97;98570.72;5035745;28;19920;-39
2022/06/22 12:09:43;;;;;;;;;;;;;;;36.15;33.64;98564.00;5036400;28;19920;-39
2022/06/22 12:12:14;;;;;;;;;;;;;;;35.15;32.35;98569.50;5037261;28;19992;-39
2022/06/22 12:17:32;;;;;;;;;;;;;;;36.75;31.23;98557.00;5035101;28;20048;-39
2022/06/22 12:20:17;;;;;;;;;;;;;;;37.89;31.17;98556.72;5049256;28;20982;-39
2022/06/22 12:22:42;;;;;;;;;;;;;;;35.99;33.31;98556.50;5036770;28;19917;-39
2022/06/22 12:25:10;;;;;;;;;;;;;;;37.20;31.26;98554.66;5036626;28;19951;-39
2022/06/22 12:27:39;;;;;;;;;;;;;;;36.05;31.97;98560.97;5037682;28;19939;-39
2022/06/22 12:30:23;;;;;;;;;;;;;;;36.85;29.84;98559.94;5035744;28;19918;-39
2022/06/22 12:32:54;;;;;;;;;;;;;;;37.95;29.50;98553.06;5032389;28;19925;-39
2022/06/22 12:35:20;;;;;;;;;;;;;;;37.62;30.67;98559.91;5035812;28;19925;-39
2022/06/22 12:37:50;;;;;;;;;;;;;;;35.10;31.30;98554.06;5036150;28;19927;-38
2022/06/22 12:40:27;;;;;;;;;;;;;;;35.00;30.94;98551.06;5034383;28;19921;-39
2022/06/22 12:42:57;;;;;;;;;;;;;;;35.54;29.04;98552.25;5036451;28;20672;-39
2022/06/22 12:45:41;;;;;;;;;;;;;;;37.03;28.56;98553.66;5032603;28;19925;-39
2022/06/22 12:48:12;;;;;;;;;;;;;;;36.89;29.17;98547.69;5034638;28;19944;-39
2022/06/22 12:50:44;;;;;;;;;;;;;;;36.77;29.82;98554.91;5036002;28;19924;-39
2022/06/22 12:53:20;;;;;;;;;;;;;;;36.85;30.12;98557.25;5036919;28;19916;-39
2022/06/22 12:55:50;;;;;;;;;;;;;;;38.56;26.75;98545.41;5036614;28;20054;-39
2022/06/22 12:58:17;;;;;;;;;;;;;;;35.76;29.41;98549.97;5006198;28;19960;-39
2022/06/22 13:00:42;;;;;;;;;;;;;;;35.92;29.60;98550.41;5034203;28;19920;-39
2022/06/22 13:03:09;;;;;;;;;;;;;;;37.69;28.14;98545.53;5035701;28;20742;-39
2022/06/22 13:05:34;;;;;;;;;;;;;;;38.74;27.91;98535.47;5036926;28;19920;-39
2022/06/22 13:08:01;;;;;;;;;;;;;;;39.52;27.47;98531.84;5019145;28;19970;-39
2022/06/22 13:10:31;;;;;;;;;;;;;;;37.78;28.60;98539.56;5042133;28;19916;-39
2022/06/22 13:13:02;;;;;;;;;;;;;;;38.03;27.79;98525.03;5018355;28;20282;-39
2022/06/22 13:15:28;;;;;;;;;;;;;;;39.96;28.27;98519.50;5034690;28;19971;-39
2022/06/22 13:18:05;;;;;;;;;;;;;;;39.58;27.43;98523.88;5035167;28;19943;-39
2022/06/22 13:20:33;;;;;;;;;;;;;;;38.83;27.06;98520.56;5034478;28;19916;-39
2022/06/22 13:23:08;;;;;;;;;;;;;;;37.90;27.53;98527.97;5035548;28;20848;-39
2022/06/22 13:25:38;;;;;;;;;;;;;;;38.47;28.64;98519.94;5034543;28;19952;-39
2022/06/22 13:28:16;;;;;;;;;;;;;;;38.34;28.90;98512.16;5005551;28;19929;-39